createdAt,value
2019-05-13T00:00:14.080Z,4.03
2019-05-13T00:02:47.012Z,4.47
2019-05-13T00:05:20.177Z,6.12
2019-05-13T00:08:05.188Z,5.45
2019-05-13T00:10:38.533Z,2.90
2019-05-13T00:13:11.122Z,3.27
2019-05-13T00:15:44.391Z,4.83
2019-05-13T00:18:17.985Z,4.00
2019-05-13T00:20:44.556Z,6.58
2019-05-13T00:23:17.244Z,6.22
2019-05-13T00:25:50.502Z,5.20
2019-05-13T00:28:16.870Z,5.83
2019-05-13T00:30:49.808Z,6.58
2019-05-13T00:33:24.376Z,6.15
2019-05-13T00:35:50.764Z,6.72
2019-05-13T00:38:17.032Z,6.25
2019-05-13T00:40:49.778Z,6.30
2019-05-13T00:43:24.507Z,5.22
2019-05-13T00:45:57.078Z,4.33
2019-05-13T00:48:23.522Z,7.50
2019-05-13T00:50:56.257Z,5.28
2019-05-13T00:53:23.768Z,5.60
2019-05-13T00:55:57.317Z,5.78
2019-05-13T00:58:24.144Z,6.97
2019-05-13T01:00:57.249Z,6.00
2019-05-13T01:03:30.373Z,4.65
2019-05-13T01:06:04.329Z,5.00
2019-05-13T01:08:30.713Z,5.92
2019-05-13T01:11:10.551Z,4.15
2019-05-13T01:13:43.495Z,4.58
2019-05-13T01:16:17.060Z,3.77
2019-05-13T01:18:50.289Z,4.67
2019-05-13T01:21:23.857Z,6.83
2019-05-13T01:23:50.532Z,6.75
2019-05-13T01:26:23.740Z,8.68
2019-05-13T01:28:56.717Z,5.83
2019-05-13T01:31:30.073Z,4.42
2019-05-13T01:33:56.215Z,4.85
2019-05-13T01:39:05.053Z,7.22
2019-05-13T01:41:38.291Z,3.83
2019-05-13T01:44:13.814Z,6.05
2019-05-13T01:46:39.647Z,6.50
2019-05-13T01:49:06.101Z,4.05
2019-05-13T01:51:57.892Z,7.97
2019-05-13T01:54:24.753Z,6.60
2019-05-13T01:56:57.514Z,5.08
2019-05-13T01:59:30.819Z,8.60
2019-05-13T02:01:57.150Z,5.70
2019-05-13T02:04:30.165Z,9.50
2019-05-13T02:07:04.263Z,6.35
2019-05-13T02:09:33.535Z,11.83
2019-05-13T02:12:13.426Z,9.10
2019-05-13T02:14:46.656Z,7.50
2019-05-13T02:17:19.403Z,8.58
2019-05-13T02:19:45.660Z,11.63
2019-05-13T02:22:19.390Z,8.73
2019-05-13T02:24:53.519Z,8.63
2019-05-13T02:27:19.836Z,8.50
2019-05-13T02:29:54.032Z,7.47
2019-05-13T02:32:23.293Z,7.78
2019-05-13T02:34:48.354Z,9.50
2019-05-13T02:37:23.145Z,10.93
2019-05-13T02:39:49.115Z,8.63
2019-05-13T02:42:22.928Z,10.28
2019-05-13T02:44:52.753Z,9.83
2019-05-13T02:47:24.528Z,9.10
2019-05-13T02:49:53.260Z,10.45
2019-05-13T02:52:25.559Z,10.47
2019-05-13T02:54:52.790Z,12.58
2019-05-13T02:57:25.795Z,12.15
2019-05-13T02:59:52.826Z,12.13
2019-05-13T03:02:25.836Z,11.57
2019-05-13T03:04:52.504Z,11.38
2019-05-13T03:07:25.174Z,10.82
2019-05-13T03:09:52.737Z,9.48
2019-05-13T03:12:25.679Z,9.98
2019-05-13T03:15:13.058Z,8.88
2019-05-13T03:17:47.847Z,9.40
2019-05-13T03:20:16.754Z,8.30
2019-05-13T03:22:52.266Z,11.88
2019-05-13T03:25:16.956Z,10.98
2019-05-13T03:30:26.462Z,10.40
2019-05-13T03:33:04.053Z,10.78
2019-05-13T03:35:28.017Z,11.85
2019-05-13T03:38:03.307Z,11.03
2019-05-13T03:40:32.952Z,10.00
2019-05-13T03:43:06.343Z,8.28
2019-05-13T03:45:32.852Z,13.43
2019-05-13T03:48:06.214Z,12.65
2019-05-13T03:50:39.115Z,11.80
2019-05-13T03:53:05.460Z,14.35
2019-05-13T03:55:38.394Z,12.33
2019-05-13T03:58:13.185Z,14.68
2019-05-13T04:00:46.289Z,13.35
2019-05-13T04:03:22.536Z,14.43
2019-05-13T04:05:54.418Z,12.33
2019-05-13T04:08:22.771Z,16.77
2019-05-13T04:10:56.216Z,16.93
2019-05-13T04:13:35.348Z,13.98
2019-05-13T04:16:15.647Z,16.15
2019-05-13T04:18:48.645Z,11.53
2019-05-13T04:21:15.104Z,15.93
2019-05-13T04:23:48.477Z,15.20
2019-05-13T04:26:15.376Z,13.75
2019-05-13T04:28:52.406Z,15.08
2019-05-13T04:31:17.041Z,15.00
2019-05-13T04:33:52.848Z,14.38
2019-05-13T04:36:24.991Z,13.78
2019-05-13T04:38:52.843Z,16.15
2019-05-13T04:41:25.473Z,20.17
2019-05-13T04:43:58.336Z,18.50
2019-05-13T04:46:24.690Z,17.55
2019-05-13T04:48:57.607Z,15.72
2019-05-13T04:51:52.130Z,17.77
2019-05-13T04:54:17.064Z,16.57
2019-05-13T04:56:52.585Z,18.12
2019-05-13T04:59:18.494Z,18.70
2019-05-13T05:01:59.356Z,17.12
2019-05-13T05:05:07.777Z,13.90
2019-05-13T05:07:52.558Z,14.53
2019-05-13T05:10:55.325Z,16.57
2019-05-13T05:13:44.663Z,19.65
2019-05-13T05:16:17.459Z,17.85
2019-05-13T05:19:23.852Z,12.37
2019-05-13T05:25:29.337Z,15.28
2019-05-13T05:28:05.928Z,14.28
2019-05-13T05:30:57.002Z,14.07
2019-05-13T05:33:53.907Z,15.38
2019-05-13T05:37:05.671Z,16.23
2019-05-13T05:42:25.103Z,12.25
2019-05-13T05:44:53.762Z,13.80
2019-05-13T05:47:26.545Z,12.10
2019-05-13T05:49:54.495Z,12.70
2019-05-13T05:52:31.597Z,15.50
2019-05-13T05:54:58.369Z,11.45
2019-05-13T05:57:26.023Z,9.60
2019-05-13T06:00:02.290Z,13.18
2019-05-13T06:02:32.230Z,12.70
2019-05-13T06:05:05.856Z,10.38
2019-05-13T06:07:34.545Z,9.33
2019-05-13T06:10:07.839Z,12.20
2019-05-13T06:12:34.690Z,11.63
2019-05-13T06:15:14.132Z,10.93
2019-05-13T06:17:47.300Z,11.30
2019-05-13T06:20:21.146Z,10.72
2019-05-13T06:25:42.526Z,9.53
2019-05-13T06:28:14.110Z,8.98
2019-05-13T06:30:46.746Z,10.35
2019-05-13T06:33:13.186Z,11.33
2019-05-13T06:35:42.594Z,9.95
2019-05-13T06:38:15.342Z,13.62
2019-05-13T06:40:42.411Z,9.58
2019-05-13T06:43:08.926Z,10.43
2019-05-13T06:45:42.100Z,10.95
2019-05-13T06:48:08.412Z,10.45
2019-05-13T06:50:34.662Z,10.08
2019-05-13T06:53:08.596Z,10.90
2019-05-13T06:55:35.095Z,12.68
2019-05-13T06:58:07.753Z,10.23
2019-05-13T07:00:35.061Z,9.55
2019-05-13T07:03:08.083Z,8.73
2019-05-13T07:05:34.439Z,9.35
2019-05-13T07:08:07.383Z,9.08
2019-05-13T07:10:41.443Z,8.38
2019-05-13T07:13:08.185Z,14.70
2019-05-13T07:15:55.026Z,9.53
2019-05-13T07:18:28.279Z,11.03
2019-05-13T07:20:54.616Z,9.15
2019-05-13T07:23:27.404Z,7.87
2019-05-13T07:26:01.705Z,10.90
2019-05-13T07:28:28.182Z,8.13
2019-05-13T07:30:54.445Z,9.53
2019-05-13T07:33:27.025Z,10.05
2019-05-13T07:36:02.842Z,10.25
2019-05-13T07:38:28.801Z,9.90
2019-05-13T07:41:01.349Z,8.65
2019-05-13T07:46:18.398Z,8.85
2019-05-13T07:48:52.138Z,6.37
2019-05-13T07:51:25.692Z,7.58
2019-05-13T07:53:52.278Z,13.38
2019-05-13T07:56:24.910Z,9.43
2019-05-13T07:58:58.282Z,8.50
2019-05-13T08:01:24.635Z,9.73
2019-05-13T08:03:57.332Z,10.95
2019-05-13T08:09:21.752Z,7.95
2019-05-13T08:12:05.446Z,8.58
2019-05-13T08:14:28.696Z,7.53
2019-05-13T08:17:07.881Z,7.87
2019-05-13T08:19:41.500Z,8.08
2019-05-13T08:22:07.931Z,11.70
2019-05-13T08:24:42.451Z,9.68
2019-05-13T08:27:08.679Z,6.75
2019-05-13T08:29:42.156Z,9.20
2019-05-13T08:32:11.140Z,8.40
2019-05-13T08:34:43.834Z,7.00
2019-05-13T08:37:17.238Z,7.17
2019-05-13T08:39:52.229Z,6.50
2019-05-13T08:42:20.178Z,9.30
2019-05-13T08:44:53.533Z,14.43
2019-05-13T08:47:26.524Z,7.85
2019-05-13T08:50:03.822Z,8.88
2019-05-13T08:52:34.492Z,11.40
2019-05-13T08:55:01.502Z,11.60
2019-05-13T08:57:28.496Z,9.05
2019-05-13T09:00:04.727Z,9.90
2019-05-13T09:02:36.973Z,8.73
2019-05-13T09:05:13.160Z,9.73
2019-05-13T09:10:31.872Z,10.28
2019-05-13T09:13:05.228Z,7.70
2019-05-13T09:15:44.405Z,7.55
2019-05-13T09:18:17.822Z,7.72
2019-05-13T09:20:52.044Z,10.08
2019-05-13T09:23:18.561Z,8.78
2019-05-13T09:25:44.886Z,5.17
2019-05-13T09:28:17.945Z,8.80
2019-05-13T09:30:53.151Z,6.37
2019-05-13T09:33:21.744Z,8.10
2019-05-13T09:35:50.103Z,6.22
2019-05-13T09:38:22.747Z,8.03
2019-05-13T09:40:49.189Z,5.67
2019-05-13T09:43:22.402Z,5.03
2019-05-13T09:45:55.363Z,6.72
2019-05-13T09:48:22.720Z,4.78
2019-05-13T09:50:51.665Z,5.03
2019-05-13T09:53:24.721Z,6.85
2019-05-13T09:55:52.153Z,4.58
2019-05-13T09:58:29.461Z,3.93
2019-05-13T10:00:53.904Z,8.93
2019-05-13T10:03:29.520Z,5.75
2019-05-13T10:05:54.954Z,5.08
2019-05-13T10:08:28.247Z,7.53
2019-05-13T10:10:54.593Z,4.55
2019-05-13T10:13:27.570Z,6.55
2019-05-13T10:16:14.403Z,5.80
2019-05-13T10:18:47.366Z,6.67
2019-05-13T10:21:21.860Z,5.42
2019-05-13T10:23:58.645Z,4.05
2019-05-13T10:26:32.069Z,4.28
2019-05-13T10:29:05.605Z,5.15
2019-05-13T10:31:38.684Z,5.05
2019-05-13T10:34:13.995Z,5.03
2019-05-13T10:36:47.373Z,4.05
2019-05-13T10:39:13.832Z,5.87
2019-05-13T10:41:46.644Z,4.15
2019-05-13T10:44:19.738Z,3.75
2019-05-13T10:46:52.753Z,5.80
2019-05-13T10:49:19.362Z,5.83
2019-05-13T10:51:54.000Z,3.33
2019-05-13T10:54:21.686Z,3.60
2019-05-13T10:56:59.421Z,4.22
2019-05-13T10:59:23.354Z,3.50
2019-05-13T11:01:56.652Z,4.10
2019-05-13T11:04:32.036Z,3.65
2019-05-13T11:07:04.966Z,5.20
2019-05-13T11:09:32.557Z,4.58
2019-05-13T11:12:06.423Z,3.70
2019-05-13T11:14:42.234Z,8.45
2019-05-13T11:17:14.500Z,5.50
2019-05-13T11:19:40.885Z,4.42
2019-05-13T11:22:14.152Z,3.22
2019-05-13T11:24:43.194Z,3.72
2019-05-13T11:27:15.451Z,3.85
2019-05-13T11:29:48.419Z,5.55
2019-05-13T11:32:14.785Z,3.62
2019-05-13T11:34:47.786Z,3.65
2019-05-13T11:37:14.139Z,4.55
2019-05-13T11:39:42.803Z,3.60
2019-05-13T11:44:42.977Z,3.42
2019-05-13T11:47:16.623Z,5.00
2019-05-13T11:49:51.346Z,3.40
2019-05-13T11:52:17.886Z,4.05
2019-05-13T11:54:44.307Z,3.42
2019-05-13T11:57:17.650Z,4.80
2019-05-13T11:59:44.207Z,3.37
2019-05-13T12:02:13.582Z,4.00
2019-05-13T12:07:32.264Z,3.52
2019-05-13T12:10:23.361Z,3.02
2019-05-13T12:12:56.404Z,3.05
2019-05-13T12:18:12.683Z,3.77
2019-05-13T12:20:41.951Z,3.72
2019-05-13T12:23:14.461Z,3.27
2019-05-13T12:25:43.648Z,4.12
2019-05-13T12:30:48.605Z,5.90
2019-05-13T12:33:22.642Z,4.22
2019-05-13T12:35:52.567Z,3.85
2019-05-13T12:38:24.050Z,6.78
2019-05-13T12:40:57.145Z,3.12
2019-05-13T12:43:24.302Z,3.08
2019-05-13T12:45:57.296Z,4.78
2019-05-13T12:48:23.609Z,4.55
2019-05-13T12:50:56.733Z,4.28
2019-05-13T12:53:23.071Z,3.98
2019-05-13T12:55:55.789Z,4.00
2019-05-13T12:58:24.418Z,3.22
2019-05-13T13:00:57.662Z,4.95
2019-05-13T13:03:24.229Z,3.02
2019-05-13T13:06:21.209Z,4.55
2019-05-13T13:08:41.824Z,4.85
2019-05-13T13:11:00.247Z,3.70
2019-05-13T13:16:03.509Z,3.62
2019-05-13T13:18:43.727Z,4.50
2019-05-13T13:21:17.423Z,3.22
2019-05-13T13:23:50.666Z,3.95
2019-05-13T13:26:23.715Z,2.58
2019-05-13T13:29:08.350Z,3.35
2019-05-13T13:31:43.233Z,3.15
2019-05-13T13:34:13.623Z,4.42
2019-05-13T13:36:46.107Z,3.95
2019-05-13T13:39:14.972Z,4.25
2019-05-13T13:44:24.640Z,4.15
2019-05-13T13:46:50.784Z,4.25
2019-05-13T13:49:24.193Z,5.42
2019-05-13T13:51:50.693Z,6.12
2019-05-13T13:54:23.338Z,4.72
2019-05-13T13:56:55.113Z,3.90
2019-05-13T13:59:18.472Z,4.87
2019-05-13T14:01:54.800Z,6.78
2019-05-13T14:04:19.125Z,3.87
2019-05-13T14:06:32.043Z,3.85
2019-05-13T14:07:08.959Z,3.27
2019-05-13T14:09:27.722Z,4.72
2019-05-13T14:12:02.034Z,4.65
2019-05-13T14:14:28.752Z,10.32
2019-05-13T14:17:08.441Z,4.03
2019-05-13T14:19:48.664Z,3.40
2019-05-13T14:22:28.971Z,4.45
2019-05-13T14:24:55.222Z,5.12
2019-05-13T14:27:28.399Z,5.12
2019-05-13T14:29:54.660Z,3.40
2019-05-13T14:32:22.446Z,3.75
2019-05-13T14:34:55.047Z,6.78
2019-05-13T14:37:28.148Z,5.42
2019-05-13T14:42:45.973Z,8.40
2019-05-13T14:45:12.637Z,7.22
2019-05-13T14:50:36.968Z,3.55
2019-05-13T14:53:03.418Z,3.95
2019-05-13T14:55:36.318Z,4.25
2019-05-13T14:58:02.954Z,3.87
2019-05-13T15:00:29.401Z,3.20
2019-05-13T15:03:03.066Z,5.17
2019-05-13T15:05:36.059Z,4.22
2019-05-13T15:08:09.470Z,4.92
2019-05-13T15:10:36.238Z,5.22
2019-05-13T15:13:03.154Z,6.05
2019-05-13T15:15:36.388Z,3.80
2019-05-13T15:18:22.550Z,7.25
2019-05-13T15:21:15.931Z,3.85
2019-05-13T15:23:42.467Z,4.97
2019-05-13T15:26:15.730Z,4.40
2019-05-13T15:28:51.095Z,4.17
2019-05-13T15:31:17.398Z,5.72
2019-05-13T15:33:43.835Z,7.35
2019-05-13T15:36:16.831Z,6.70
2019-05-13T15:38:43.108Z,5.15
2019-05-13T15:41:15.922Z,4.72
2019-05-13T15:43:42.557Z,6.30
2019-05-13T15:46:16.165Z,3.80
2019-05-13T15:48:42.428Z,5.25
2019-05-13T15:51:11.120Z,5.28
2019-05-13T15:53:43.743Z,6.20
2019-05-13T15:56:12.469Z,4.03
2019-05-13T15:58:44.766Z,5.40
2019-05-13T16:01:29.931Z,4.60
2019-05-13T16:04:03.146Z,4.10
2019-05-13T16:06:32.026Z,5.17
2019-05-13T16:09:04.346Z,4.37
2019-05-13T16:11:32.619Z,6.20
2019-05-13T16:14:05.745Z,5.25
2019-05-13T16:16:38.427Z,8.70
2019-05-13T16:19:11.325Z,5.83
2019-05-13T16:21:44.719Z,7.40
2019-05-13T16:26:53.572Z,6.22
2019-05-13T16:29:26.716Z,6.45
2019-05-13T16:31:53.079Z,6.92
2019-05-13T16:37:17.264Z,4.45
2019-05-13T16:39:43.612Z,7.45
2019-05-13T16:42:16.528Z,5.45
2019-05-13T16:44:43.175Z,5.67
2019-05-13T16:47:16.505Z,6.00
2019-05-13T16:49:49.649Z,3.70
2019-05-13T16:52:22.916Z,4.05
2019-05-13T16:54:56.162Z,6.50
2019-05-13T16:57:22.628Z,4.10
2019-05-13T17:00:14.676Z,6.35
2019-05-13T17:02:42.134Z,5.80
2019-05-13T17:05:16.015Z,5.50
2019-05-13T17:07:42.485Z,4.65
2019-05-13T17:10:17.234Z,3.65
2019-05-13T17:15:35.136Z,3.83
2019-05-13T17:18:11.881Z,5.00
2019-05-13T17:20:51.889Z,4.55
2019-05-13T17:23:24.373Z,4.67
2019-05-13T17:25:57.676Z,5.78
2019-05-13T17:28:45.155Z,3.67
2019-05-13T17:31:17.848Z,4.42
2019-05-13T17:33:51.992Z,4.85
2019-05-13T17:36:18.662Z,6.42
2019-05-13T17:38:45.021Z,7.37
2019-05-13T17:41:18.089Z,9.00
2019-05-13T17:43:44.308Z,6.58
2019-05-13T17:46:16.972Z,5.20
2019-05-13T17:48:43.452Z,3.98
2019-05-13T17:51:16.605Z,6.25
2019-05-13T17:53:43.147Z,3.58
2019-05-13T17:56:16.591Z,6.28
2019-05-13T17:58:42.845Z,5.15
2019-05-13T18:01:16.071Z,3.83
2019-05-13T18:03:42.624Z,6.00
2019-05-13T18:06:15.878Z,4.75
2019-05-13T18:08:42.819Z,6.33
2019-05-13T18:11:11.240Z,5.62
2019-05-13T18:13:44.162Z,3.35
2019-05-13T18:16:17.526Z,4.35
2019-05-13T18:18:52.096Z,4.87
2019-05-13T18:21:32.130Z,5.20
2019-05-13T18:24:05.865Z,6.42
2019-05-13T18:26:32.400Z,3.08
2019-05-13T18:29:05.100Z,6.30
2019-05-13T18:31:31.710Z,4.58
2019-05-13T18:34:05.314Z,5.42
2019-05-13T18:36:32.152Z,3.92
2019-05-13T18:39:05.227Z,3.08
2019-05-13T18:41:31.748Z,5.17
2019-05-13T18:44:04.341Z,2.75
2019-05-13T18:46:32.262Z,4.15
2019-05-13T18:49:05.727Z,4.95
2019-05-13T18:51:32.120Z,2.83
2019-05-13T18:53:58.563Z,2.30
2019-05-13T18:56:32.282Z,2.25
2019-05-13T19:01:56.896Z,2.80
2019-05-13T19:04:23.150Z,5.22
2019-05-13T19:06:51.685Z,3.47
2019-05-13T19:09:24.432Z,2.85
2019-05-13T19:11:51.551Z,3.37
2019-05-13T19:14:24.792Z,3.67
2019-05-13T19:16:51.028Z,2.10
2019-05-13T19:19:31.660Z,2.60
2019-05-13T19:22:04.789Z,2.30
2019-05-13T19:24:43.949Z,2.60
2019-05-13T19:27:12.062Z,7.75
2019-05-13T19:29:45.006Z,1.50
2019-05-13T19:32:12.447Z,3.02
2019-05-13T19:34:46.032Z,2.35
2019-05-13T19:37:19.339Z,5.42
2019-05-13T19:39:45.952Z,4.00
2019-05-13T19:42:22.144Z,4.03
2019-05-13T19:44:52.443Z,5.25
2019-05-13T19:47:25.898Z,3.45
2019-05-13T19:49:52.434Z,2.17
2019-05-13T19:52:18.821Z,3.15
2019-05-13T19:54:51.489Z,6.22
2019-05-13T19:57:24.732Z,3.30
2019-05-13T19:59:51.076Z,5.33
2019-05-13T20:02:23.920Z,3.83
2019-05-13T20:04:57.453Z,3.58
2019-05-13T20:07:23.830Z,6.28
2019-05-13T20:09:57.370Z,3.08
2019-05-13T20:12:23.900Z,3.65
2019-05-13T20:14:56.443Z,3.62
2019-05-13T20:17:29.408Z,2.27
2019-05-13T20:20:05.751Z,4.72
2019-05-13T20:22:38.914Z,3.05
2019-05-13T20:25:13.316Z,2.83
2019-05-13T20:27:42.003Z,5.12
2019-05-13T20:30:15.125Z,2.02
2019-05-13T20:32:41.767Z,4.25
2019-05-13T20:35:15.239Z,2.65
2019-05-13T20:37:41.606Z,3.25
2019-05-13T20:40:07.982Z,2.25
2019-05-13T20:42:41.414Z,2.30
2019-05-13T20:45:07.972Z,2.70
2019-05-13T20:47:42.047Z,3.22
2019-05-13T20:50:08.917Z,3.70
2019-05-13T20:52:47.812Z,7.20
2019-05-13T20:55:14.264Z,3.55
2019-05-13T20:57:48.171Z,3.10
2019-05-13T21:00:14.833Z,3.27
2019-05-13T21:02:41.817Z,4.22
2019-05-13T21:05:17.773Z,4.05
2019-05-13T21:07:51.560Z,5.20
2019-05-13T21:10:18.401Z,3.95
2019-05-13T21:12:52.119Z,3.95
2019-05-13T21:15:25.519Z,3.05
2019-05-13T21:17:51.866Z,3.42
2019-05-13T21:20:26.060Z,4.35
2019-05-13T21:22:59.404Z,3.40
2019-05-13T21:25:32.853Z,5.10
2019-05-13T21:28:06.027Z,3.10
2019-05-13T21:30:34.000Z,4.40
2019-05-13T21:33:25.303Z,3.15
2019-05-13T21:36:02.512Z,5.47
2019-05-13T21:41:24.399Z,6.28
2019-05-13T21:44:03.504Z,4.35
2019-05-13T21:46:34.219Z,5.53
2019-05-13T21:49:11.650Z,4.85
2019-05-13T21:51:41.675Z,4.30
2019-05-13T21:54:21.175Z,3.92
2019-05-13T21:56:52.569Z,6.55
2019-05-13T21:59:23.317Z,6.55
2019-05-13T22:02:06.934Z,6.95
2019-05-13T22:05:01.052Z,6.28
2019-05-13T22:07:37.841Z,5.22
2019-05-13T22:10:18.070Z,6.15
2019-05-13T22:12:44.010Z,6.63
2019-05-13T22:15:29.592Z,5.72
2019-05-13T22:18:06.734Z,5.12
2019-05-13T22:20:49.960Z,5.53
2019-05-13T22:23:21.605Z,4.72
2019-05-13T22:26:02.875Z,6.33
2019-05-13T22:28:38.146Z,5.45
2019-05-13T22:31:07.344Z,6.35
2019-05-13T22:33:46.417Z,4.60
2019-05-13T22:36:22.344Z,4.53
2019-05-13T22:39:14.040Z,5.35
2019-05-13T22:41:45.966Z,4.97
2019-05-13T22:44:45.162Z,5.83
2019-05-13T22:47:02.415Z,6.17
2019-05-13T22:49:31.053Z,6.35
2019-05-13T22:51:59.601Z,6.10
2019-05-13T22:54:34.006Z,5.20
2019-05-13T22:57:11.934Z,4.50
2019-05-13T22:59:44.302Z,7.05
2019-05-13T23:02:21.982Z,6.50
2019-05-13T23:04:56.563Z,6.40
2019-05-13T23:07:37.833Z,9.00
2019-05-13T23:10:05.594Z,8.03
2019-05-13T23:12:46.156Z,6.15
2019-05-13T23:15:21.307Z,5.62
2019-05-13T23:17:57.986Z,6.08
2019-05-13T23:20:31.880Z,4.25
2019-05-13T23:23:13.689Z,4.42
2019-05-13T23:25:43.251Z,4.75
2019-05-13T23:28:18.352Z,5.50
2019-05-13T23:30:53.627Z,6.25
2019-05-13T23:33:31.564Z,5.30
2019-05-13T23:36:02.310Z,3.87
2019-05-13T23:38:36.880Z,5.65
2019-05-13T23:41:07.623Z,3.70
2019-05-13T23:43:37.208Z,4.67
2019-05-13T23:46:11.782Z,4.60
2019-05-13T23:48:38.376Z,4.33
2019-05-13T23:51:12.904Z,6.65
2019-05-13T23:53:58.240Z,4.30
2019-05-13T23:56:32.996Z,2.67
2019-05-13T23:59:04.264Z,4.12
